Time;durP1;ratioP1;P1;durP2;ratioP2;P2;SDS_P1;SDS_P2;PMS_P1;PMS_P2;Temp;Humidity;BMP_temperature;BMP_pressure;BME280_temperature;BME280_humidity;BME280_pressure;Samples;Min_cycle;Max_cycle;Signal;HPM_P1;HPM_P2
2022/05/26 00:01:24;;;;;;;5.43;1.67;;;;;;;26.04;54.20;100824.81;5021533;28;20041;-74
2022/05/26 00:03:50;;;;;;;5.65;2.08;;;;;;;26.03;54.18;100823.19;5024008;28;20527;-74
2022/05/26 00:06:21;;;;;;;6.55;2.10;;;;;;;26.03;54.18;100823.19;5020853;28;20120;-72
2022/05/26 00:08:48;;;;;;;4.45;1.83;;;;;;;26.01;54.35;100819.94;5026424;28;20082;-73
2022/05/26 00:11:17;;;;;;;5.00;2.10;;;;;;;26.02;54.00;100821.56;5022943;28;20377;-75
2022/05/26 00:13:43;;;;;;;5.10;1.80;;;;;;;26.03;54.05;100830.38;5023351;28;20033;-74
2022/05/26 00:16:10;;;;;;;7.88;2.17;;;;;;;26.01;54.09;100827.94;5025769;28;20047;-72
2022/05/26 00:18:36;;;;;;;6.10;1.95;;;;;;;26.01;54.22;100825.28;5023281;28;20050;-76
2022/05/26 00:21:02;;;;;;;3.25;1.30;;;;;;;26.01;54.25;100825.28;5021367;28;20669;-75
2022/05/26 00:23:28;;;;;;;6.20;1.85;;;;;;;25.99;54.12;100821.25;5020628;28;20040;-72
2022/05/26 00:25:53;;;;;;;4.72;2.13;;;;;;;25.99;54.27;100822.06;5026365;28;20033;-73
2022/05/26 00:28:19;;;;;;;3.88;1.75;;;;;;;25.99;54.33;100819.41;5021200;28;20120;-75
2022/05/26 00:30:45;;;;;;;7.90;1.70;;;;;;;25.97;54.25;100818.00;5035154;28;20066;-75
2022/05/26 00:33:11;;;;;;;4.95;1.92;;;;;;;25.94;54.40;100813.13;5047605;28;20040;-76
2022/05/26 00:35:40;;;;;;;3.65;1.67;;;;;;;25.93;54.08;100815.00;5038669;28;20029;-73
2022/05/26 00:38:08;;;;;;;3.53;1.60;;;;;;;25.92;54.10;100809.91;5020860;28;20118;-70
2022/05/26 00:40:33;;;;;;;7.85;2.42;;;;;;;25.93;54.17;100822.19;5026981;28;20025;-74
2022/05/26 00:42:59;;;;;;;4.88;1.65;;;;;;;25.93;54.31;100820.34;5026985;28;20496;-73
2022/05/26 00:45:31;;;;;;;7.40;1.85;;;;;;;25.90;54.48;100815.47;5021745;28;20148;-74
2022/05/26 00:47:57;;;;;;;4.88;1.58;;;;;;;25.89;54.42;100816.53;5024548;28;20575;-73
2022/05/26 00:50:28;;;;;;;4.25;1.65;;;;;;;25.91;54.31;100816.28;5032519;28;20025;-73
2022/05/26 00:53:06;;;;;;;7.10;2.17;;;;;;;25.91;54.21;100819.75;5021565;28;20043;-72
2022/05/26 00:55:40;;;;;;;5.20;1.90;;;;;;;25.93;54.24;100811.53;5026315;28;20025;-75
2022/05/26 00:58:20;;;;;;;4.25;1.60;;;;;;;25.90;54.05;100804.78;5024912;28;20160;-74
2022/05/26 01:00:47;;;;;;;5.63;1.80;;;;;;;25.93;54.10;100816.84;5024481;28;20040;-75
2022/05/26 01:03:25;;;;;;;3.45;1.50;;;;;;;25.91;54.08;100817.09;5024031;28;20044;-73
2022/05/26 01:05:51;;;;;;;4.75;2.15;;;;;;;25.91;53.77;100803.75;5023669;28;20585;-73
2022/05/26 01:08:47;;;;;;;4.85;1.63;;;;;;;25.89;54.01;100803.19;5025716;28;20043;-72
2022/05/26 01:11:12;;;;;;;5.68;2.15;;;;;;;25.84;54.15;100799.59;5031799;28;20033;-73
2022/05/26 01:13:44;;;;;;;6.45;2.05;;;;;;;25.82;53.86;100805.16;5024377;28;20025;-72
2022/05/26 01:16:24;;;;;;;3.40;1.75;;;;;;;25.83;53.93;100803.31;5024060;28;20516;-73
2022/05/26 01:19:03;;;;;;;5.35;1.75;;;;;;;25.84;53.94;100811.06;5030907;28;20994;-74
2022/05/26 01:22:02;;;;;;;6.60;2.08;;;;;;;25.86;53.90;100805.50;5024157;28;20029;-73
2022/05/26 01:24:59;;;;;;;4.53;1.60;;;;;;;25.85;53.84;100798.53;5005200;28;20677;-72
2022/05/26 01:27:37;;;;;;;3.53;1.48;;;;;;;25.86;53.76;100805.50;5030035;28;20029;-72
2022/05/26 01:30:23;;;;;;;3.47;1.48;;;;;;;25.87;53.88;100809.78;5031273;28;20041;-70
2022/05/26 01:33:16;;;;;;;6.18;2.05;;;;;;;25.88;53.75;100812.22;5023211;28;20096;-73
2022/05/26 01:36:13;;;;;;;2.50;1.65;;;;;;;25.87;53.71;100810.59;5027100;28;20568;-71
2022/05/26 01:38:55;;;;;;;6.32;1.75;;;;;;;25.89;53.79;100815.72;5029982;28;20120;-71
2022/05/26 01:41:28;;;;;;;8.43;2.03;;;;;;;25.89;53.87;100805.84;5027695;28;20117;-72
2022/05/26 01:44:09;;;;;;;3.60;1.65;;;;;;;25.90;53.79;100809.31;5024320;28;20669;-74
2022/05/26 01:46:42;;;;;;;2.45;1.35;;;;;;;25.89;53.80;100805.84;5023051;28;20040;-73
2022/05/26 01:49:43;;;;;;;2.97;1.60;;;;;;;25.88;54.03;100809.56;5023766;28;20064;-74
2022/05/26 01:52:27;;;;;;;3.85;1.30;;;;;;;25.87;53.96;100810.59;5001317;28;20036;-71
2022/05/26 01:55:10;;;;;;;2.63;1.30;;;;;;;25.87;53.74;100805.25;5033778;28;20427;-74
2022/05/26 01:57:45;;;;;;;4.07;1.75;;;;;;;25.89;53.79;100805.03;5032805;28;20036;-73
2022/05/26 02:00:12;;;;;;;;;;;;;;;25.81;53.96;100798.19;5029830;28;21526;-72
2022/05/26 02:02:43;;;;;;;4.40;1.58;;;;;;;25.84;54.04;100796.91;5023857;28;20019;-72
2022/05/26 02:05:16;;;;;;;2.78;1.35;;;;;;;25.87;53.93;100797.25;5019398;28;20063;-74
2022/05/26 02:07:51;;;;;;;6.10;1.85;;;;;;;25.87;53.87;100799.94;5025381;28;20056;-73
2022/05/26 02:10:26;;;;;;;4.90;1.40;;;;;;;25.88;54.00;100796.22;5024194;28;20037;-72
2022/05/26 02:13:03;;;;;;;3.03;1.00;;;;;;;25.90;53.89;100802.13;5029941;28;20388;-72
2022/05/26 02:15:37;;;;;;;4.72;1.15;;;;;;;25.90;53.75;100802.13;5023176;28;20028;-74
2022/05/26 02:18:07;;;;;;;2.80;1.17;;;;;;;25.90;53.64;100807.47;5023869;28;20388;-73
2022/05/26 02:20:47;;;;;;;7.10;2.17;;;;;;;25.89;53.88;100803.19;5028585;28;20739;-74
2022/05/26 02:23:20;;;;;;;3.85;1.13;;;;;;;25.90;53.75;100810.13;5023484;28;20103;-75
2022/05/26 02:25:46;;;;;;;4.22;1.60;;;;;;;25.90;53.62;100803.97;5023081;28;20028;-73
2022/05/26 02:28:12;;;;;;;2.85;1.58;;;;;;;25.89;53.60;100805.03;5026480;28;20017;-73
2022/05/26 02:30:41;;;;;;;3.83;1.67;;;;;;;25.89;53.50;100810.38;5027919;28;20043;-72
2022/05/26 02:33:10;;;;;;;2.95;1.40;;;;;;;25.89;53.47;100819.19;5025768;28;21147;-74
2022/05/26 02:35:44;;;;;;;4.30;2.03;;;;;;;25.88;53.65;100822.91;5021791;28;20115;-74
2022/05/26 02:38:16;;;;;;;5.10;1.58;;;;;;;25.87;53.67;100833.81;5022529;28;20075;-72
2022/05/26 02:40:42;;;;;;;5.65;1.67;;;;;;;25.87;53.72;100823.13;5026756;28;20039;-73
2022/05/26 02:43:16;;;;;;;4.18;1.60;;;;;;;25.86;53.53;100827.66;5024073;28;20700;-73
2022/05/26 02:45:58;;;;;;;7.47;2.05;;;;;;;25.86;53.58;100838.34;5048437;28;20107;-71
2022/05/26 02:48:35;;;;;;;5.60;1.75;;;;;;;25.87;53.57;100837.28;5043705;28;20045;-72
2022/05/26 02:51:19;;;;;;;5.28;1.55;;;;;;;25.87;53.55;100834.63;5032787;28;20064;-74
2022/05/26 02:53:57;;;;;;;3.55;1.52;;;;;;;25.86;53.54;100841.00;5023449;28;20040;-71
2022/05/26 02:56:41;;;;;;;2.85;1.75;;;;;;;25.86;53.55;100851.69;5026034;28;20032;-74
2022/05/26 02:59:38;;;;;;;4.30;1.23;;;;;;;25.86;53.63;100857.03;5026979;28;20044;-75
2022/05/26 03:02:16;;;;;;;5.20;1.65;;;;;;;25.87;53.65;100865.84;5028947;28;20037;-75
2022/05/26 03:04:50;;;;;;;3.05;1.15;;;;;;;25.90;53.43;100865.38;5022864;28;20074;-74
2022/05/26 03:07:23;;;;;;;3.87;1.30;;;;;;;25.90;53.45;100866.19;5023690;28;20182;-73
2022/05/26 03:09:49;;;;;;;4.63;1.38;;;;;;;25.91;53.39;100857.13;5032442;28;20404;-74
2022/05/26 03:12:26;;;;;;;4.22;1.20;;;;;;;25.92;53.10;100852.59;5040552;28;20073;-73
2022/05/26 03:14:51;;;;;;;4.32;1.15;;;;;;;25.93;53.23;100855.03;5024816;28;20040;-71
2022/05/26 03:17:17;;;;;;;3.35;1.30;;;;;;;25.93;53.09;100855.03;5020462;28;20523;-72
2022/05/26 03:19:43;;;;;;;3.45;1.20;;;;;;;25.92;52.96;100857.94;5022230;28;20382;-73
2022/05/26 03:22:08;;;;;;;2.30;1.30;;;;;;;25.92;52.88;100858.75;5025574;28;20032;-72
2022/05/26 03:24:34;;;;;;;3.03;1.40;;;;;;;25.93;52.83;100859.56;5020555;28;20111;-71
2022/05/26 03:26:59;;;;;;;2.55;1.23;;;;;;;25.92;52.81;100860.63;5024487;28;20781;-71
2022/05/26 03:29:24;;;;;;;2.78;1.10;;;;;;;25.90;52.77;100858.19;5031960;28;20128;-71
2022/05/26 03:31:50;;;;;;;4.10;1.55;;;;;;;25.90;52.63;100855.50;5023186;28;20844;-74
2022/05/26 03:42:28;;;;;;;4.45;1.17;;;;;;;25.86;52.62;100867.69;5028187;28;20055;-73
2022/05/26 03:44:54;;;;;;;2.85;1.13;;;;;;;25.86;52.58;100864.22;5028232;28;20032;-73
2022/05/26 03:47:20;;;;;;;2.58;1.05;;;;;;;25.87;52.55;100863.19;5020232;28;20820;-72
2022/05/26 03:49:45;;;;;;;4.10;0.90;;;;;;;25.86;52.52;100857.03;5023985;28;20021;-74
2022/05/26 03:52:10;;;;;;;3.22;1.08;;;;;;;25.85;52.47;100858.06;5021659;28;20484;-73
2022/05/26 03:54:36;;;;;;;2.83;1.00;;;;;;;25.86;52.67;100858.88;5029234;28;20029;-73
2022/05/26 03:57:03;;;;;;;2.33;1.02;;;;;;;25.86;52.70;100869.56;5027834;28;20742;-75
2022/05/26 03:59:29;;;;;;;2.78;1.00;;;;;;;25.83;52.53;100860.16;5026179;28;20369;-73
2022/05/26 04:01:54;;;;;;;3.45;1.15;;;;;;;25.85;52.43;100866.06;5024711;28;20388;-75
2022/05/26 04:04:20;;;;;;;3.10;1.10;;;;;;;25.84;52.45;100872.47;5023964;28;20326;-73
2022/05/26 04:06:45;;;;;;;2.58;1.17;;;;;;;25.83;52.40;100873.50;5021169;28;20037;-73
2022/05/26 04:09:11;;;;;;;1.98;1.20;;;;;;;25.84;52.43;100883.13;5022142;28;20140;-74
2022/05/26 04:11:36;;;;;;;5.85;1.35;;;;;;;25.84;52.39;100883.13;5020803;28;20665;-73
2022/05/26 04:14:02;;;;;;;2.17;0.82;;;;;;;25.85;52.27;100890.09;5022078;28;20774;-72
2022/05/26 04:16:27;;;;;;;3.88;1.10;;;;;;;25.85;52.21;100892.78;5025990;28;20029;-73
2022/05/26 04:18:53;;;;;;;1.80;0.80;;;;;;;25.86;52.15;100893.59;5020167;28;20033;-74
2022/05/26 04:21:19;;;;;;;1.65;0.80;;;;;;;25.87;52.42;100897.88;5021653;28;20148;-74
2022/05/26 04:23:44;;;;;;;3.13;1.38;;;;;;;25.87;52.17;100892.53;5026318;28;20040;-74
2022/05/26 04:26:11;;;;;;;2.33;0.90;;;;;;;25.89;52.16;100893.94;5021866;28;20053;-73
2022/05/26 04:28:37;;;;;;;3.53;0.82;;;;;;;25.90;52.08;100886.72;5030491;28;20024;-73
2022/05/26 04:31:02;;;;;;;2.03;0.90;;;;;;;25.90;52.01;100903.56;5030197;28;20021;-74
2022/05/26 04:33:29;;;;;;;4.63;0.85;;;;;;;25.91;51.93;100905.19;5027741;28;20465;-74
2022/05/26 04:35:54;;;;;;;5.25;0.98;;;;;;;25.89;52.17;100901.94;5042408;28;20083;-72
2022/05/26 04:38:20;;;;;;;5.35;0.90;;;;;;;25.90;51.73;100897.41;5024737;28;20481;-74
2022/05/26 04:40:55;;;;;;;3.22;0.65;;;;;;;25.90;51.74;100911.56;5024593;28;20040;-73
2022/05/26 04:43:20;;;;;;;5.63;1.00;;;;;;;25.91;52.73;100910.53;5031985;28;20490;-74
2022/05/26 04:45:46;;;;;;;6.32;1.63;;;;;;;25.98;53.02;100915.72;5027660;28;20127;-75
2022/05/26 04:48:11;;;;;;;6.00;2.00;;;;;;;26.03;54.52;100918.47;5025601;28;20061;-74
2022/05/26 04:50:37;;;;;;;6.55;2.03;;;;;;;26.02;54.53;100916.84;5034950;28;20024;-75
2022/05/26 04:53:02;;;;;;;10.63;1.40;;;;;;;26.00;53.94;100919.75;5028149;28;20025;-72
2022/05/26 04:55:28;;;;;;;3.35;1.08;;;;;;;25.97;52.67;100914.09;5025269;28;20029;-73
2022/05/26 04:57:53;;;;;;;3.55;0.80;;;;;;;25.95;52.32;100911.69;5046465;28;20383;-73
2022/05/26 05:00:20;;;;;;;5.07;1.17;;;;;;;25.94;52.25;100915.38;5044755;28;20120;-72
2022/05/26 05:02:45;;;;;;;5.18;0.95;;;;;;;25.93;51.74;100919.09;5050780;28;20029;-74
2022/05/26 05:05:12;;;;;;;5.38;1.05;;;;;;;25.93;51.83;100924.44;5048680;28;20111;-72
2022/05/26 05:07:37;;;;;;;5.90;0.82;;;;;;;25.93;51.56;100913.78;5048563;28;20033;-74
2022/05/26 05:10:04;;;;;;;3.70;1.25;;;;;;;25.90;51.28;100908.91;5049005;28;20515;-72
2022/05/26 05:12:30;;;;;;;1.45;0.82;;;;;;;25.91;51.07;100915.84;5050116;28;20497;-74
2022/05/26 05:14:56;;;;;;;3.75;0.90;;;;;;;25.91;51.06;100926.53;5050706;28;20025;-72
2022/05/26 05:17:24;;;;;;;3.72;0.68;;;;;;;25.92;50.70;100933.50;5046521;28;20114;-72
2022/05/26 05:19:50;;;;;;;1.80;0.47;;;;;;;25.91;50.25;100942.56;5049017;28;20468;-75
2022/05/26 05:22:21;;;;;;;4.45;0.80;;;;;;;25.90;50.44;100935.59;5050324;28;20028;-74
2022/05/26 05:24:49;;;;;;;2.10;0.60;;;;;;;25.91;50.34;100934.53;5049513;28;20089;-71
2022/05/26 05:27:28;;;;;;;3.85;0.50;;;;;;;25.88;50.03;100927.00;5049111;28;20021;-72
2022/05/26 05:29:59;;;;;;;1.70;0.57;;;;;;;25.86;49.82;100928.28;5050488;28;20425;-74
2022/05/26 05:32:39;;;;;;;3.40;0.68;;;;;;;25.84;49.74;100930.38;5049238;28;20054;-74
2022/05/26 05:35:19;;;;;;;5.65;0.60;;;;;;;25.82;49.41;100925.25;5049596;28;20037;-71
2022/05/26 05:37:44;;;;;;;4.03;0.98;;;;;;;25.82;49.60;100927.13;5050551;28;20072;-73
2022/05/26 05:40:11;;;;;;;3.42;0.30;;;;;;;25.71;47.35;100931.41;5048122;28;20056;-71
2022/05/26 05:42:36;;;;;;;2.05;0.30;;;;;;;25.61;45.66;100933.81;5053128;28;20060;-72
2022/05/26 05:45:02;;;;;;;1.27;0.40;;;;;;;25.56;45.21;100939.03;5051756;28;20048;-70
2022/05/26 05:47:28;;;;;;;1.85;0.30;;;;;;;25.39;44.36;100939.75;5051619;28;20052;-72
2022/05/26 05:49:53;;;;;;;1.48;0.40;;;;;;;25.18;44.42;100942.94;5049609;28;20032;-71
2022/05/26 05:52:22;;;;;;;1.83;0.28;;;;;;;25.14;44.70;100947.13;5051175;28;20029;-74
2022/05/26 05:54:47;;;;;;;1.10;0.28;;;;;;;25.18;44.75;100936.81;5051628;28;20020;-74
2022/05/26 05:57:13;;;;;;;2.58;0.28;;;;;;;25.27;44.77;100941.56;5055114;28;20099;-74
2022/05/26 05:59:38;;;;;;;1.67;0.30;;;;;;;25.29;45.07;100944.81;5054387;28;20055;-74
2022/05/26 06:02:04;;;;;;;5.68;0.40;;;;;;;25.25;44.43;100943.66;5054484;28;20392;-74
2022/05/26 06:04:30;;;;;;;2.05;0.47;;;;;;;25.26;44.75;100939.13;5049582;28;20089;-73
2022/05/26 06:06:57;;;;;;;2.67;0.40;;;;;;;25.31;45.27;100945.41;5049916;28;20032;-72
2022/05/26 06:09:22;;;;;;;1.95;0.30;;;;;;;25.31;45.60;100950.75;5049230;28;20044;-73
2022/05/26 06:11:49;;;;;;;3.58;0.60;;;;;;;25.33;46.27;100954.00;5049502;28;20067;-75
2022/05/26 06:14:15;;;;;;;0.95;0.32;;;;;;;25.37;46.91;100947.16;5047122;28;20086;-71
2022/05/26 06:16:41;;;;;;;4.97;0.60;;;;;;;25.39;46.76;100944.25;5049339;28;20479;-72
2022/05/26 06:19:06;;;;;;;5.35;0.60;;;;;;;25.39;47.10;100945.06;5049529;28;20045;-73
2022/05/26 06:21:32;;;;;;;1.30;0.32;;;;;;;25.43;46.84;100950.75;5049581;28;20094;-71
2022/05/26 06:23:58;;;;;;;2.92;0.30;;;;;;;25.40;46.80;100952.03;5047905;28;20032;-71
2022/05/26 06:26:25;;;;;;;3.10;0.30;;;;;;;25.41;46.76;100951.00;5049370;28;20070;-73
2022/05/26 06:31:35;;;;;;;5.43;0.50;;;;;;;25.43;47.29;100954.25;5049025;28;20052;-72
2022/05/26 06:39:29;;;;;;;2.08;0.45;;;;;;;25.47;47.06;100973.28;5048441;28;20118;-75
2022/05/26 06:42:07;;;;;;;4.10;0.50;;;;;;;25.49;46.46;100975.72;5049579;28;20465;-75
2022/05/26 06:44:38;;;;;;;1.75;0.40;;;;;;;25.44;46.04;100974.53;5047871;28;20120;-73
2022/05/26 06:47:10;;;;;;;1.65;0.30;;;;;;;25.41;45.54;100980.34;5048778;28;20431;-69
2022/05/26 06:49:38;;;;;;;3.88;0.40;;;;;;;25.40;45.66;100977.91;5048973;28;20072;-73
2022/05/26 06:52:04;;;;;;;4.38;0.30;;;;;;;25.37;45.66;100978.34;5049281;28;20392;-74
2022/05/26 06:54:36;;;;;;;1.83;0.30;;;;;;;25.41;45.79;100982.19;5046718;28;20128;-71
2022/05/26 06:57:03;;;;;;;2.45;0.30;;;;;;;25.44;46.14;100990.53;5048702;28;20020;-77
2022/05/26 06:59:29;;;;;;;1.10;0.40;;;;;;;25.46;46.42;100991.13;5048577;28;20035;-71
2022/05/26 07:01:54;;;;;;;1.27;0.38;;;;;;;25.47;46.97;100989.28;5048677;28;20021;-72
2022/05/26 07:04:20;;;;;;;1.30;0.30;;;;;;;25.47;46.82;100986.59;5046869;28;20118;-73
2022/05/26 07:06:51;;;;;;;1.52;0.20;;;;;;;25.49;45.89;100991.72;5048439;28;20052;-71
2022/05/26 07:09:17;;;;;;;1.67;0.40;;;;;;;25.45;45.50;100997.50;5047687;28;20484;-74
2022/05/26 07:11:43;;;;;;;3.03;0.30;;;;;;;25.45;45.80;100996.69;5048470;28;20029;-72
2022/05/26 07:14:09;;;;;;;3.38;0.20;;;;;;;25.48;46.00;101006.09;5047735;28;20081;-75
2022/05/26 07:16:35;;;;;;;1.10;0.20;;;;;;;25.48;45.76;101006.09;5048353;28;20017;-72
2022/05/26 07:19:00;;;;;;;1.17;0.20;;;;;;;25.45;45.39;101002.84;5048067;28;20104;-71
2022/05/26 07:21:25;;;;;;;2.17;0.20;;;;;;;25.44;45.07;101009.22;5048007;28;20029;-74
2022/05/26 07:23:51;;;;;;;2.28;0.20;;;;;;;25.45;44.73;101002.03;5046962;28;20032;-71
2022/05/26 07:26:17;;;;;;;1.10;0.20;;;;;;;25.46;44.80;101007.13;5048226;28;20028;-74
2022/05/26 07:28:42;;;;;;;1.50;0.40;;;;;;;25.46;44.50;101009.00;5048197;28;20024;-72
2022/05/26 07:31:12;;;;;;;1.83;0.20;;;;;;;25.48;44.64;101016.75;5048026;28;20028;-72
2022/05/26 07:33:38;;;;;;;1.60;0.20;;;;;;;25.50;44.44;101018.16;5048052;28;20029;-74
2022/05/26 07:36:05;;;;;;;2.72;0.20;;;;;;;25.48;44.11;101019.44;5046764;28;20086;-73
2022/05/26 07:41:23;;;;;;;1.48;0.15;;;;;;;25.48;44.17;101028.25;5047265;28;20083;-73
2022/05/26 07:43:54;;;;;;;2.67;0.22;;;;;;;25.52;44.36;101033.94;5047734;28;20396;-72
2022/05/26 07:46:21;;;;;;;1.52;0.10;;;;;;;25.56;44.44;101043.91;5046133;28;20121;-71
2022/05/26 07:48:47;;;;;;;1.00;0.20;;;;;;;25.59;44.26;101045.28;5041992;28;20041;-73
2022/05/26 07:51:13;;;;;;;0.82;0.17;;;;;;;25.60;44.47;101036.25;5033516;28;20425;-72
2022/05/26 07:53:39;;;;;;;1.15;0.20;;;;;;;25.61;44.78;101046.69;5046500;28;20039;-72
2022/05/26 07:56:05;;;;;;;0.90;0.20;;;;;;;25.62;44.79;101050.19;5045507;28;20075;-72
2022/05/26 07:58:30;;;;;;;0.40;0.20;;;;;;;25.61;44.63;101044.03;5039938;28;20040;-73
2022/05/26 08:00:56;;;;;;;0.82;0.20;;;;;;;25.62;44.71;101044.84;5043527;28;20388;-73
2022/05/26 08:03:22;;;;;;;1.35;0.28;;;;;;;25.63;44.69;101041.94;5045506;28;20036;-72
2022/05/26 08:05:47;;;;;;;0.60;0.15;;;;;;;25.64;44.94;101042.78;5046992;28;20037;-72
2022/05/26 08:08:14;;;;;;;1.77;0.20;;;;;;;25.64;44.90;101048.94;5050045;28;20438;-73
2022/05/26 08:10:40;;;;;;;1.95;0.20;;;;;;;25.65;44.70;101049.75;5050188;28;20036;-73
2022/05/26 08:13:06;;;;;;;1.40;0.20;;;;;;;25.64;44.93;101040.94;5052025;28;20499;-73
2022/05/26 08:15:33;;;;;;;1.13;0.20;;;;;;;25.65;44.90;101047.91;5051934;28;20060;-72
2022/05/26 08:17:58;;;;;;;1.00;0.20;;;;;;;25.66;44.85;101054.84;5049153;28;20039;-73
2022/05/26 08:20:25;;;;;;;0.65;0.20;;;;;;;25.67;44.89;101055.66;5051468;28;20029;-74
2022/05/26 08:22:51;;;;;;;0.40;0.10;;;;;;;25.67;45.21;101058.34;5051293;28;20580;-71
2022/05/26 08:25:17;;;;;;;1.00;0.15;;;;;;;25.67;45.09;101058.34;5050568;28;20025;-73
2022/05/26 08:27:42;;;;;;;1.13;0.20;;;;;;;25.67;45.24;101063.69;5051537;28;20065;-73
2022/05/26 08:30:08;;;;;;;2.25;0.30;;;;;;;25.67;45.40;101061.00;5051186;28;20031;-74
2022/05/26 08:32:34;;;;;;;0.60;0.20;;;;;;;25.67;45.50;101063.69;5051183;28;20119;-73
2022/05/26 08:35:03;;;;;;;2.05;0.30;;;;;;;25.68;45.59;101078.66;5050636;28;20128;-71
2022/05/26 08:37:28;;;;;;;1.63;0.30;;;;;;;25.69;45.62;101075.75;5050231;28;20029;-71
2022/05/26 08:39:54;;;;;;;2.92;0.30;;;;;;;25.70;45.71;101079.22;5050392;28;20387;-74
2022/05/26 08:42:31;;;;;;;1.75;0.20;;;;;;;25.68;45.83;101070.63;5031005;28;20080;-73
2022/05/26 08:45:01;;;;;;;2.20;0.30;;;;;;;25.69;45.66;101072.25;5030843;28;20035;-73
2022/05/26 08:47:40;;;;;;;0.95;0.22;;;;;;;25.70;45.85;101081.91;5046006;28;20052;-73
2022/05/26 08:50:06;;;;;;;1.35;0.35;;;;;;;25.70;45.97;101084.56;5048563;28;20095;-74
2022/05/26 08:52:48;;;;;;;0.60;0.20;;;;;;;25.69;46.18;101078.41;5050947;28;20634;-73
2022/05/26 08:55:21;;;;;;;1.75;0.30;;;;;;;25.69;46.07;101088.28;5049734;28;20037;-72
2022/05/26 08:57:55;;;;;;;0.82;0.20;;;;;;;25.70;46.21;101090.72;5031226;28;20353;-73
2022/05/26 09:00:23;;;;;;;0.70;0.20;;;;;;;25.70;46.26;101085.38;5030721;28;20025;-73
2022/05/26 09:02:58;;;;;;;2.05;0.20;;;;;;;25.71;46.18;101086.19;5030978;28;20021;-72
2022/05/26 09:05:23;;;;;;;0.82;0.20;;;;;;;25.70;46.25;101098.72;5030764;28;20033;-74
2022/05/26 09:13:41;;;;;;;1.38;0.30;;;;;;;25.72;46.43;101109.16;5050871;28;20141;-73
2022/05/26 09:16:08;;;;;;;1.15;0.20;;;;;;;25.73;46.68;101094.78;5050499;28;20498;-71
2022/05/26 09:18:35;;;;;;;3.05;0.45;;;;;;;25.73;46.55;101100.94;5049644;28;20028;-71
2022/05/26 09:21:22;;;;;;;1.08;0.50;;;;;;;25.72;46.52;101103.84;5049236;28;20025;-71
2022/05/26 09:23:48;;;;;;;1.80;0.28;;;;;;;25.74;46.41;101104.41;5048030;28;20033;-71
2022/05/26 09:26:28;;;;;;;1.95;0.40;;;;;;;25.72;46.46;101103.84;5034454;28;20021;-73
2022/05/26 09:28:56;;;;;;;1.17;0.30;;;;;;;25.73;46.50;101105.47;5050381;28;20033;-73
2022/05/26 09:31:36;;;;;;;1.02;0.20;;;;;;;25.72;46.64;101114.50;5050220;28;20025;-73
2022/05/26 09:34:34;;;;;;;2.35;0.20;;;;;;;25.70;46.55;101114.72;5045146;28;20024;-72
2022/05/26 09:37:02;;;;;;;1.90;0.30;;;;;;;25.72;46.62;101119.84;5037001;28;20075;-74
2022/05/26 09:39:42;;;;;;;0.50;0.30;;;;;;;25.71;46.50;101119.03;5049856;28;20041;-73
2022/05/26 09:42:16;;;;;;;0.60;0.30;;;;;;;25.71;46.48;101111.03;5048292;28;20037;-74
2022/05/26 09:44:53;;;;;;;0.50;0.20;;;;;;;25.72;46.64;101106.50;5047043;28;20574;-71
2022/05/26 09:47:39;;;;;;;0.68;0.20;;;;;;;25.71;46.52;101110.22;5049436;28;20068;-73
2022/05/26 09:50:13;;;;;;;0.82;0.20;;;;;;;25.71;46.40;101108.34;5049891;28;20135;-72
2022/05/26 09:52:42;;;;;;;1.63;0.20;;;;;;;25.73;46.45;101110.78;5050148;28;20033;-74
2022/05/26 09:55:16;;;;;;;0.65;0.20;;;;;;;25.73;46.48;101108.94;5047917;28;20090;-72
2022/05/26 09:57:42;;;;;;;0.50;0.20;;;;;;;25.74;46.38;101105.22;5029647;28;20060;-72
2022/05/26 10:00:40;;;;;;;0.30;0.20;;;;;;;25.73;46.70;101102.78;5029669;28;20465;-71
2022/05/26 10:03:26;;;;;;;0.55;0.20;;;;;;;25.72;46.74;101099.31;5029834;28;20029;-72
2022/05/26 10:06:20;;;;;;;0.70;0.20;;;;;;;25.72;46.63;101098.50;5039078;28;20503;-71
2022/05/26 10:09:14;;;;;;;1.42;0.25;;;;;;;25.72;46.49;101098.50;5049490;28;20037;-73
2022/05/26 10:11:46;;;;;;;0.63;0.28;;;;;;;25.76;46.56;101105.00;5047195;28;20043;-70
2022/05/26 10:14:17;;;;;;;1.52;0.20;;;;;;;25.76;46.51;101097.00;5045240;28;20041;-74
2022/05/26 10:16:52;;;;;;;0.82;0.20;;;;;;;25.76;46.67;101100.47;5046839;28;20068;-71
2022/05/26 10:19:41;;;;;;;2.63;0.30;;;;;;;25.76;46.78;101094.31;5049124;28;20043;-71
2022/05/26 10:22:13;;;;;;;0.60;0.20;;;;;;;25.75;46.65;101090.03;4986080;28;20518;-71
2022/05/26 10:25:09;;;;;;;2.80;0.30;;;;;;;25.74;46.16;101099.09;4986225;28;20081;-71
2022/05/26 10:27:50;;;;;;;2.08;0.38;;;;;;;25.74;46.42;101096.41;4982085;28;20403;-72
2022/05/26 10:30:56;;;;;;;2.67;0.20;;;;;;;25.74;46.44;101085.75;4986622;28;20030;-70
2022/05/26 10:33:43;;;;;;;0.40;0.20;;;;;;;25.72;46.75;101080.63;4986732;28;20050;-71
2022/05/26 10:36:12;;;;;;;1.70;0.28;;;;;;;25.76;46.72;101083.66;4968187;28;20286;-72
2022/05/26 10:38:40;;;;;;;2.38;0.20;;;;;;;25.77;46.67;101088.75;4966983;28;20035;-71
2022/05/26 10:41:30;;;;;;;1.35;0.30;;;;;;;25.79;46.78;101083.19;4967626;28;20074;-72
2022/05/26 10:44:09;;;;;;;1.55;0.22;;;;;;;25.78;46.79;101074.38;4986782;28;20038;-73
2022/05/26 10:46:38;;;;;;;6.15;0.73;;;;;;;25.83;48.50;101079.03;4986689;28;20046;-72
2022/05/26 10:49:25;;;;;;;11.35;1.65;;;;;;;26.02;50.07;101077.88;4986453;28;20054;-72
2022/05/26 10:52:07;;;;;;;9.02;0.52;;;;;;;26.23;50.63;101068.47;4982370;28;20057;-73
2022/05/26 10:54:57;;;;;;;3.75;0.50;;;;;;;26.29;50.10;101072.88;4967250;28;20489;-73
2022/05/26 10:57:38;;;;;;;4.65;0.30;;;;;;;26.26;50.06;101064.53;4976061;28;20046;-74
2022/05/26 11:00:10;;;;;;;4.03;0.40;;;;;;;26.24;50.00;101070.09;5022921;28;20099;-72
2022/05/26 11:02:48;;;;;;;3.60;0.40;;;;;;;26.22;49.63;101071.38;5031918;28;20598;-72
2022/05/26 11:05:24;;;;;;;2.88;0.40;;;;;;;26.21;50.73;101065.22;5048259;28;20090;-71
2022/05/26 11:08:13;;;;;;;2.50;0.40;;;;;;;26.26;53.45;101045.81;5048470;28;20147;-75
2022/05/26 11:11:21;;;;;;;4.82;0.52;;;;;;;26.31;55.27;101051.31;5048434;28;20037;-72
2022/05/26 11:13:51;;;;;;;1.42;0.45;;;;;;;26.55;57.58;101049.41;5046489;28;20052;-72
2022/05/26 11:19:20;;;;;;;1.50;0.52;;;;;;;27.01;60.20;101048.47;5047872;28;20368;-74
2022/05/26 11:21:46;;;;;;;4.30;0.70;;;;;;;27.02;55.47;101044.75;5048278;28;20115;-74
2022/05/26 11:24:12;;;;;;;3.10;0.40;;;;;;;26.89;52.47;101055.72;5043906;28;20124;-74
2022/05/26 11:27:02;;;;;;;2.05;0.40;;;;;;;26.71;50.44;101054.81;5046707;28;20033;-71
2022/05/26 11:29:34;;;;;;;1.10;0.38;;;;;;;26.62;50.17;101056.25;5048040;28;20464;-72
2022/05/26 11:38:13;;;;;;;1.98;0.30;;;;;;;26.46;49.46;101046.31;5047099;28;20380;-72
2022/05/26 11:41:03;;;;;;;2.00;0.38;;;;;;;26.46;49.45;101048.97;5047597;28;20029;-74
2022/05/26 11:43:45;;;;;;;1.15;0.30;;;;;;;26.41;49.00;101047.00;5047393;28;20041;-72
2022/05/26 11:46:32;;;;;;;1.30;0.38;;;;;;;26.41;48.85;101038.19;5046119;28;20033;-72
2022/05/26 11:48:57;;;;;;;2.03;0.40;;;;;;;26.38;48.51;101039.47;5046854;28;20037;-74
2022/05/26 11:51:30;;;;;;;1.73;0.30;;;;;;;26.37;48.06;101039.69;5047748;28;20036;-72
2022/05/26 11:53:56;;;;;;;1.70;0.40;;;;;;;26.39;47.93;101040.28;5046782;28;20040;-72
2022/05/26 11:56:28;;;;;;;4.25;0.40;;;;;;;26.40;48.29;101033.88;5045431;28;20103;-72
2022/05/26 11:59:32;;;;;;;2.80;0.70;;;;;;;26.38;48.45;101030.63;5047650;28;20463;-74
2022/05/26 12:02:00;;;;;;;3.80;0.35;;;;;;;26.37;48.24;101029.00;5047677;28;20060;-72
2022/05/26 12:04:28;;;;;;;1.60;0.40;;;;;;;26.38;48.46;101017.28;5047591;28;20448;-72
2022/05/26 12:06:59;;;;;;;2.42;0.40;;;;;;;26.38;48.28;101022.63;5045318;28;20503;-73
2022/05/26 12:09:37;;;;;;;2.22;0.40;;;;;;;26.38;48.21;101022.63;5045824;28;20453;-75
2022/05/26 12:12:22;;;;;;;2.90;0.57;;;;;;;26.37;47.99;101023.66;5046918;28;20051;-73
2022/05/26 12:14:50;;;;;;;1.98;0.60;;;;;;;26.36;47.95;101022.03;5036719;28;20072;-72
2022/05/26 12:17:30;;;;;;;2.40;0.35;;;;;;;26.35;47.72;101017.75;5045487;28;20057;-72
2022/05/26 12:20:10;;;;;;;1.42;0.30;;;;;;;26.35;47.44;101012.41;5047714;28;20068;-74